createdAt,value
2018-03-06T00:00:27.375Z,60.9
2018-03-06T00:01:28.677Z,61.3
2018-03-06T00:02:30.035Z,61.3
2018-03-06T00:03:31.386Z,60.9
2018-03-06T00:04:32.730Z,61.0
2018-03-06T00:05:34.118Z,61.4
2018-03-06T00:06:35.423Z,61.7
2018-03-06T00:07:36.782Z,61.7
2018-03-06T00:08:38.133Z,61.4
2018-03-06T00:09:39.484Z,62.2
2018-03-06T00:10:40.838Z,62.1
2018-03-06T00:11:42.194Z,62.2
2018-03-06T00:12:43.546Z,62.5
2018-03-06T00:13:44.895Z,62.5
2018-03-06T00:14:46.202Z,62.5
2018-03-06T00:15:47.550Z,62.3
2018-03-06T00:16:48.936Z,62.2
2018-03-06T00:17:50.248Z,62.0
2018-03-06T00:18:51.602Z,62.2
2018-03-06T00:19:52.954Z,62.1
2018-03-06T00:20:54.295Z,62.1
2018-03-06T00:21:55.638Z,62.6
2018-03-06T00:22:56.983Z,62.2
2018-03-06T00:23:58.339Z,62.0
2018-03-06T00:24:59.681Z,62.1
2018-03-06T00:26:01.032Z,61.4
2018-03-06T00:27:02.379Z,61.9
2018-03-06T00:28:04.349Z,61.5
2018-03-06T00:29:05.696Z,61.5
2018-03-06T00:30:07.048Z,61.6
2018-03-06T00:31:08.391Z,61.5
2018-03-06T00:32:09.742Z,61.9
2018-03-06T00:33:11.091Z,61.4
2018-03-06T00:34:12.440Z,61.3
2018-03-06T00:35:13.784Z,61.2
2018-03-06T00:36:15.134Z,61.1
2018-03-06T00:37:16.483Z,61.1
2018-03-06T00:38:17.828Z,61.6
2018-03-06T00:39:19.132Z,61.3
2018-03-06T00:40:20.562Z,61.1
2018-03-06T00:41:21.922Z,61.4
2018-03-06T00:42:23.260Z,61.4
2018-03-06T00:43:24.610Z,61.2
2018-03-06T00:44:26.017Z,61.4
2018-03-06T00:45:27.265Z,61.2
2018-03-06T00:46:28.613Z,61.1
2018-03-06T00:47:29.969Z,61.1
2018-03-06T00:48:31.313Z,61.1
2018-03-06T00:49:32.619Z,61.0
2018-03-06T00:50:33.983Z,61.3
2018-03-06T00:51:35.333Z,61.5
2018-03-06T00:52:36.679Z,61.5
2018-03-06T00:53:38.038Z,61.2
2018-03-06T00:54:39.373Z,61.0
2018-03-06T00:55:40.711Z,61.0
2018-03-06T00:56:42.055Z,60.9
2018-03-06T00:57:43.406Z,61.3
2018-03-06T00:58:45.470Z,61.4
2018-03-06T00:59:46.821Z,61.4
2018-03-06T01:00:48.123Z,61.3
2018-03-06T01:01:49.475Z,61.0
2018-03-06T01:02:50.882Z,61.0
2018-03-06T01:03:52.224Z,61.4
2018-03-06T01:04:53.537Z,61.2
2018-03-06T01:05:54.881Z,61.1
2018-03-06T01:06:56.228Z,61.2
2018-03-06T01:07:57.575Z,61.3
2018-03-06T01:08:58.927Z,61.1
2018-03-06T01:10:00.271Z,61.5
2018-03-06T01:11:01.613Z,61.7
2018-03-06T01:12:02.920Z,61.6
2018-03-06T01:13:04.267Z,61.6
2018-03-06T01:14:05.636Z,61.8
2018-03-06T01:15:06.980Z,61.7
2018-03-06T01:16:08.288Z,61.6
2018-03-06T01:17:09.636Z,61.5
2018-03-06T01:18:10.988Z,61.5
2018-03-06T01:19:12.332Z,62.1
2018-03-06T01:20:13.688Z,62.0
2018-03-06T01:21:15.036Z,61.8
2018-03-06T01:22:16.384Z,62.3
2018-03-06T01:23:17.731Z,62.6
2018-03-06T01:24:19.082Z,62.3
2018-03-06T01:25:20.419Z,62.3
2018-03-06T01:26:21.772Z,62.0
2018-03-06T01:27:23.111Z,62.0
2018-03-06T01:28:24.457Z,62.8
2018-03-06T01:29:25.808Z,62.5
2018-03-06T01:30:27.156Z,62.5
2018-03-06T01:31:28.505Z,62.2
2018-03-06T01:32:29.848Z,62.5
2018-03-06T01:33:31.204Z,62.1
2018-03-06T01:34:32.555Z,62.4
2018-03-06T01:35:35.749Z,62.5
2018-03-06T01:36:37.111Z,62.9
2018-03-06T01:37:38.453Z,62.7
2018-03-06T01:38:39.802Z,62.8
2018-03-06T01:39:41.149Z,62.7
2018-03-06T01:40:42.497Z,62.6
2018-03-06T01:41:43.860Z,62.8
2018-03-06T01:42:45.212Z,62.9
2018-03-06T01:43:46.551Z,63.4
2018-03-06T01:44:47.900Z,63.4
2018-03-06T01:45:49.253Z,63.2
2018-03-06T01:46:50.613Z,63.0
2018-03-06T01:47:51.932Z,63.0
2018-03-06T01:48:53.282Z,62.8
2018-03-06T01:49:54.632Z,63.5
2018-03-06T01:50:56.070Z,63.4
2018-03-06T01:51:57.431Z,63.2
2018-03-06T01:52:58.734Z,63.4
2018-03-06T01:54:00.085Z,63.1
2018-03-06T01:55:01.431Z,62.9
2018-03-06T01:56:02.779Z,63.0
2018-03-06T01:57:04.161Z,63.2
2018-03-06T01:58:05.508Z,63.0
2018-03-06T01:59:06.852Z,63.1
2018-03-06T02:00:08.200Z,63.4
2018-03-06T02:01:09.550Z,62.9
2018-03-06T02:02:10.899Z,62.7
2018-03-06T02:03:12.255Z,62.7
2018-03-06T02:04:13.560Z,62.8
2018-03-06T02:05:14.907Z,62.8
2018-03-06T02:06:16.251Z,62.7
2018-03-06T02:07:17.595Z,62.7
2018-03-06T02:08:18.905Z,62.9
2018-03-06T02:09:20.249Z,62.7
2018-03-06T02:10:21.594Z,63.2
2018-03-06T02:11:22.945Z,62.9
2018-03-06T02:12:24.310Z,63.4
2018-03-06T02:13:25.634Z,63.3
2018-03-06T02:14:26.987Z,63.5
2018-03-06T02:15:28.333Z,63.8
2018-03-06T02:16:29.680Z,63.5
2018-03-06T02:17:31.024Z,63.9
2018-03-06T02:18:32.372Z,64.3
2018-03-06T02:19:34.475Z,64.3
2018-03-06T02:20:35.821Z,64.7
2018-03-06T02:21:37.165Z,64.9
2018-03-06T02:22:38.506Z,65.4
2018-03-06T02:23:39.853Z,65.8
2018-03-06T02:24:41.195Z,65.9
2018-03-06T02:25:42.541Z,66.0
2018-03-06T02:26:43.883Z,66.1
2018-03-06T02:27:45.232Z,66.7
2018-03-06T02:28:46.579Z,66.3
2018-03-06T02:29:47.914Z,67.1
2018-03-06T02:30:49.293Z,67.0
2018-03-06T02:31:50.597Z,66.9
2018-03-06T02:32:51.948Z,67.5
2018-03-06T02:33:53.289Z,67.6
2018-03-06T02:34:54.638Z,67.0
2018-03-06T02:35:55.998Z,67.4
2018-03-06T02:36:57.333Z,67.6
2018-03-06T02:37:58.671Z,67.2
2018-03-06T02:39:00.031Z,66.9
2018-03-06T02:40:01.374Z,66.2
2018-03-06T02:41:02.717Z,66.1
2018-03-06T02:42:04.084Z,65.9
2018-03-06T02:43:05.431Z,65.0
2018-03-06T02:44:06.779Z,65.3
2018-03-06T02:45:08.131Z,65.3
2018-03-06T02:46:09.476Z,65.4
2018-03-06T02:47:10.877Z,65.0
2018-03-06T02:48:12.171Z,65.8
2018-03-06T02:49:13.521Z,65.9
2018-03-06T02:50:14.871Z,65.9
2018-03-06T02:51:16.175Z,65.8
2018-03-06T02:52:17.517Z,65.4
2018-03-06T02:53:18.867Z,65.5
2018-03-06T02:54:20.208Z,65.7
2018-03-06T02:55:21.558Z,65.7
2018-03-06T02:56:22.907Z,66.2
2018-03-06T02:57:24.252Z,66.2
2018-03-06T02:58:25.605Z,66.3
2018-03-06T02:59:26.911Z,66.2
2018-03-06T03:00:28.253Z,66.4
2018-03-06T03:01:29.606Z,66.3
2018-03-06T03:02:31.511Z,66.1
2018-03-06T03:03:32.810Z,66.2
2018-03-06T03:04:34.167Z,66.4
2018-03-06T03:05:35.506Z,65.9
2018-03-06T03:06:36.851Z,65.5
2018-03-06T03:07:38.197Z,65.3
2018-03-06T03:08:39.553Z,65.2
2018-03-06T03:09:40.894Z,65.0
2018-03-06T03:10:42.242Z,64.8
2018-03-06T03:11:43.591Z,65.2
2018-03-06T03:12:44.939Z,64.2
2018-03-06T03:13:46.286Z,64.2
2018-03-06T03:14:47.593Z,64.2
2018-03-06T03:15:48.935Z,64.2
2018-03-06T03:16:50.283Z,63.6
2018-03-06T03:17:51.624Z,63.7
2018-03-06T03:18:52.971Z,63.8
2018-03-06T03:19:54.331Z,64.0
2018-03-06T03:20:55.681Z,64.0
2018-03-06T03:21:57.026Z,63.6
2018-03-06T03:22:58.378Z,63.5
2018-03-06T03:23:59.721Z,63.4
2018-03-06T03:25:01.076Z,63.4
2018-03-06T03:26:02.432Z,63.4
2018-03-06T03:27:04.674Z,63.4
2018-03-06T03:28:06.017Z,63.5
2018-03-06T03:29:07.367Z,63.4
2018-03-06T03:30:08.674Z,63.4
2018-03-06T03:31:10.019Z,63.4
2018-03-06T03:32:11.376Z,63.3
2018-03-06T03:33:12.725Z,63.4
2018-03-06T03:34:14.073Z,63.3
2018-03-06T03:35:15.424Z,63.4
2018-03-06T03:36:16.768Z,63.5
2018-03-06T03:37:18.112Z,63.4
2018-03-06T03:38:19.462Z,63.2
2018-03-06T03:39:20.816Z,63.4
2018-03-06T03:40:22.165Z,63.3
2018-03-06T03:41:23.513Z,63.2
2018-03-06T03:42:24.856Z,63.3
2018-03-06T03:43:26.204Z,63.4
2018-03-06T03:44:27.548Z,63.4
2018-03-06T03:45:28.899Z,63.4
2018-03-06T03:46:30.247Z,63.2
2018-03-06T03:47:31.552Z,63.4
2018-03-06T03:48:32.919Z,63.4
2018-03-06T03:49:34.194Z,63.3
2018-03-06T03:50:35.546Z,63.4
2018-03-06T03:51:36.892Z,63.4
2018-03-06T03:52:38.236Z,63.2
2018-03-06T03:53:39.543Z,63.0
2018-03-06T03:54:40.892Z,63.1
2018-03-06T03:55:42.231Z,63.1
2018-03-06T03:56:43.575Z,63.0
2018-03-06T03:57:44.877Z,62.6
2018-03-06T03:58:46.228Z,62.6
2018-03-06T03:59:47.570Z,62.6
2018-03-06T04:00:48.958Z,62.8
2018-03-06T04:01:50.300Z,62.8
2018-03-06T04:02:51.646Z,62.8
2018-03-06T04:03:52.996Z,62.7
2018-03-06T04:04:54.298Z,62.7
2018-03-06T04:05:55.650Z,62.5
2018-03-06T04:06:56.992Z,62.5
2018-03-06T04:07:58.334Z,62.4
2018-03-06T04:08:59.687Z,62.1
2018-03-06T04:10:01.036Z,62.5
2018-03-06T04:11:02.377Z,62.6
2018-03-06T04:12:04.649Z,62.8
2018-03-06T04:13:06.001Z,62.9
2018-03-06T04:14:07.349Z,62.7
2018-03-06T04:15:08.699Z,63.4
2018-03-06T04:16:10.045Z,63.4
2018-03-06T04:17:11.384Z,63.0
2018-03-06T04:18:12.732Z,63.4
2018-03-06T04:19:14.075Z,62.6
2018-03-06T04:20:15.422Z,62.7
2018-03-06T04:21:16.760Z,62.8
2018-03-06T04:22:18.119Z,63.4
2018-03-06T04:23:19.461Z,63.4
2018-03-06T04:24:20.859Z,63.1
2018-03-06T04:25:22.110Z,63.3
2018-03-06T04:26:23.452Z,63.2
2018-03-06T04:27:24.814Z,63.0
2018-03-06T04:28:26.155Z,62.9
2018-03-06T04:29:27.460Z,63.3
2018-03-06T04:30:28.807Z,63.4
2018-03-06T04:31:30.156Z,63.2
2018-03-06T04:32:31.498Z,63.4
2018-03-06T04:33:32.848Z,63.5
2018-03-06T04:34:34.186Z,63.2
2018-03-06T04:35:35.546Z,63.4
2018-03-06T04:36:36.898Z,63.4
2018-03-06T04:37:38.242Z,63.4
2018-03-06T04:38:39.583Z,63.1
2018-03-06T04:39:40.935Z,63.1
2018-03-06T04:40:42.277Z,63.4
2018-03-06T04:41:43.626Z,63.4
2018-03-06T04:42:44.967Z,63.5
2018-03-06T04:43:46.283Z,63.4
2018-03-06T04:44:47.623Z,63.7
2018-03-06T04:45:48.962Z,64.0
2018-03-06T04:46:50.301Z,63.8
2018-03-06T04:47:51.609Z,64.0
2018-03-06T04:48:52.966Z,63.7
2018-03-06T04:49:54.330Z,63.7
2018-03-06T04:50:55.682Z,63.6
2018-03-06T04:51:56.990Z,63.6
2018-03-06T04:52:58.334Z,63.6
2018-03-06T04:53:59.682Z,63.8
2018-03-06T04:55:00.987Z,63.7
2018-03-06T04:56:02.333Z,63.9
2018-03-06T04:57:04.497Z,63.9
2018-03-06T04:58:05.845Z,64.0
2018-03-06T04:59:07.218Z,64.0
2018-03-06T05:00:08.562Z,63.9
2018-03-06T05:01:09.909Z,64.0
2018-03-06T05:02:11.264Z,64.2
2018-03-06T05:03:12.570Z,64.3
2018-03-06T05:04:13.922Z,64.3
2018-03-06T05:05:15.268Z,64.2
2018-03-06T05:06:16.613Z,64.4
2018-03-06T05:07:17.918Z,64.6
2018-03-06T05:08:19.266Z,64.6
2018-03-06T05:09:20.611Z,64.6
2018-03-06T05:10:21.952Z,64.3
2018-03-06T05:11:23.302Z,64.6
2018-03-06T05:12:24.644Z,64.4
2018-03-06T05:13:25.992Z,65.0
2018-03-06T05:14:27.336Z,64.6
2018-03-06T05:15:28.682Z,64.7
2018-03-06T05:16:30.055Z,64.9
2018-03-06T05:17:31.403Z,64.7
2018-03-06T05:18:32.709Z,64.9
2018-03-06T05:19:35.784Z,64.9
2018-03-06T05:20:37.123Z,64.8
2018-03-06T05:21:38.470Z,65.3
2018-03-06T05:22:39.812Z,64.9
2018-03-06T05:23:41.160Z,65.2
2018-03-06T05:24:42.505Z,65.0
2018-03-06T05:25:43.855Z,65.4
2018-03-06T05:26:45.163Z,65.1
2018-03-06T05:27:46.515Z,65.0
2018-03-06T05:28:47.857Z,65.3
2018-03-06T05:29:49.198Z,64.9
2018-03-06T05:30:50.546Z,64.9
2018-03-06T05:31:51.893Z,65.1
2018-03-06T05:32:53.234Z,65.1
2018-03-06T05:33:54.580Z,65.2
2018-03-06T05:34:55.951Z,65.2
2018-03-06T05:35:57.293Z,65.1
2018-03-06T05:36:58.639Z,65.4
2018-03-06T05:37:59.984Z,65.7
2018-03-06T05:39:01.348Z,65.4
2018-03-06T05:40:02.656Z,65.7
2018-03-06T05:41:03.995Z,65.5
2018-03-06T05:42:05.359Z,65.7
2018-03-06T05:43:06.706Z,66.3
2018-03-06T05:44:08.054Z,66.1
2018-03-06T05:45:09.430Z,66.1
2018-03-06T05:46:10.775Z,66.0
2018-03-06T05:47:12.120Z,66.5
2018-03-06T05:48:13.471Z,66.2
2018-03-06T05:49:14.820Z,66.3
2018-03-06T05:50:16.170Z,66.7
2018-03-06T05:51:17.484Z,66.3
2018-03-06T05:52:18.829Z,66.3
2018-03-06T05:53:20.194Z,67.1
2018-03-06T05:54:21.641Z,66.8
2018-03-06T05:55:22.995Z,66.8
2018-03-06T05:56:24.337Z,67.1
2018-03-06T05:57:25.679Z,67.0
2018-03-06T05:58:27.036Z,67.4
2018-03-06T05:59:28.384Z,67.7
2018-03-06T06:00:29.734Z,67.6
2018-03-06T06:01:31.082Z,66.9
2018-03-06T06:02:32.439Z,67.2
2018-03-06T06:03:33.826Z,67.2
2018-03-06T06:04:35.179Z,67.5
2018-03-06T06:05:36.519Z,67.4
2018-03-06T06:06:37.876Z,67.7
2018-03-06T06:07:39.186Z,67.7
2018-03-06T06:08:40.540Z,68.0
2018-03-06T06:09:41.847Z,68.1
2018-03-06T06:10:43.198Z,68.0
2018-03-06T06:11:44.547Z,68.0
2018-03-06T06:12:45.853Z,68.0
2018-03-06T06:13:47.199Z,68.0
2018-03-06T06:14:48.543Z,68.8
2018-03-06T06:15:49.890Z,68.8
2018-03-06T06:16:51.246Z,68.6
2018-03-06T06:17:52.592Z,68.8
2018-03-06T06:18:53.938Z,68.9
2018-03-06T06:19:55.304Z,69.2
2018-03-06T06:20:56.659Z,69.2
2018-03-06T06:21:58.016Z,69.2
2018-03-06T06:22:59.371Z,69.5
2018-03-06T06:24:00.724Z,69.5
2018-03-06T06:25:02.093Z,69.7
2018-03-06T06:26:03.461Z,69.8
2018-03-06T06:27:04.810Z,69.9
2018-03-06T06:28:06.160Z,70.2
2018-03-06T06:29:07.517Z,70.6
2018-03-06T06:30:09.457Z,70.5
2018-03-06T06:31:11.700Z,70.8
2018-03-06T06:32:13.240Z,71.2
2018-03-06T06:33:15.044Z,71.1
2018-03-06T06:34:17.612Z,71.0
2018-03-06T06:35:19.396Z,71.0
2018-03-06T06:36:20.911Z,71.0
2018-03-06T06:37:22.556Z,70.9
2018-03-06T06:38:23.931Z,71.0
2018-03-06T06:39:25.286Z,70.8
2018-03-06T06:40:26.630Z,70.7
2018-03-06T06:41:27.983Z,71.0
2018-03-06T06:42:29.323Z,71.3
2018-03-06T06:43:30.680Z,71.2
2018-03-06T06:44:31.990Z,71.5
2018-03-06T06:45:33.357Z,71.0
2018-03-06T06:46:35.041Z,71.2
2018-03-06T06:47:36.385Z,71.3
2018-03-06T06:48:37.733Z,71.6
2018-03-06T06:49:39.085Z,71.6
2018-03-06T06:50:40.433Z,71.4
2018-03-06T06:51:41.790Z,71.6
2018-03-06T06:52:43.137Z,71.6
2018-03-06T06:53:44.492Z,71.5
2018-03-06T06:54:45.845Z,71.7
2018-03-06T06:55:47.195Z,72.1
2018-03-06T06:56:48.546Z,71.8
2018-03-06T06:57:49.913Z,72.0
2018-03-06T06:58:51.324Z,71.8
2018-03-06T06:59:52.674Z,72.4
2018-03-06T07:00:54.024Z,72.3
2018-03-06T07:01:55.377Z,72.0
2018-03-06T07:02:56.726Z,72.3
2018-03-06T07:03:58.075Z,72.5
2018-03-06T07:04:59.435Z,72.5
2018-03-06T07:06:00.782Z,72.8
2018-03-06T07:07:02.130Z,72.3
2018-03-06T07:08:04.234Z,73.0
2018-03-06T07:09:05.589Z,72.6
2018-03-06T07:10:06.941Z,72.6
2018-03-06T07:11:08.305Z,72.8
2018-03-06T07:12:09.661Z,73.2
2018-03-06T07:13:11.018Z,73.0
2018-03-06T07:14:12.357Z,73.0
2018-03-06T07:15:13.714Z,72.9
2018-03-06T07:16:15.061Z,73.0
2018-03-06T07:17:16.412Z,73.1
2018-03-06T07:18:17.760Z,73.1
2018-03-06T07:19:19.112Z,72.9
2018-03-06T07:20:20.472Z,73.3
2018-03-06T07:21:21.823Z,73.2
2018-03-06T07:22:23.169Z,73.2
2018-03-06T07:23:24.521Z,73.0
2018-03-06T07:24:25.869Z,72.9
2018-03-06T07:25:27.219Z,72.8
2018-03-06T07:26:28.603Z,72.6
2018-03-06T07:27:29.919Z,72.7
2018-03-06T07:28:31.280Z,72.6
2018-03-06T07:29:32.638Z,72.9
2018-03-06T07:30:34.005Z,72.8
2018-03-06T07:31:35.357Z,72.9
2018-03-06T07:32:36.715Z,72.9
2018-03-06T07:33:38.074Z,72.7
2018-03-06T07:34:39.446Z,73.0
2018-03-06T07:35:40.798Z,72.5
2018-03-06T07:36:42.154Z,72.3
2018-03-06T07:37:43.525Z,72.3
2018-03-06T07:38:44.876Z,72.4
2018-03-06T07:39:46.231Z,72.3
2018-03-06T07:40:47.638Z,72.3
2018-03-06T07:41:49.019Z,72.3
2018-03-06T07:42:50.349Z,72.3
2018-03-06T07:43:51.709Z,72.3
2018-03-06T07:44:53.062Z,72.5
2018-03-06T07:45:54.412Z,72.3
2018-03-06T07:46:55.765Z,72.4
2018-03-06T07:47:57.115Z,71.9
2018-03-06T07:48:58.498Z,72.0
2018-03-06T07:49:59.829Z,72.3
2018-03-06T07:51:01.191Z,72.2
2018-03-06T07:52:02.556Z,72.0
2018-03-06T07:53:03.907Z,72.4
2018-03-06T07:54:05.258Z,72.1
2018-03-06T07:55:06.619Z,72.2
2018-03-06T07:56:07.980Z,72.1
2018-03-06T07:57:09.348Z,71.9
2018-03-06T07:58:10.693Z,72.3
2018-03-06T07:59:12.058Z,72.4
2018-03-06T08:00:13.408Z,72.3
2018-03-06T08:01:14.761Z,72.2
2018-03-06T08:02:16.124Z,72.4
2018-03-06T08:03:17.492Z,72.6
2018-03-06T08:04:18.857Z,72.2
2018-03-06T08:05:20.214Z,72.0
2018-03-06T08:06:21.574Z,72.0
2018-03-06T08:07:22.933Z,72.2
2018-03-06T08:08:24.287Z,71.8
2018-03-06T08:09:25.644Z,71.4
2018-03-06T08:10:26.994Z,71.2
2018-03-06T08:11:28.343Z,71.1
2018-03-06T08:12:29.705Z,71.1
2018-03-06T08:13:31.063Z,71.2
2018-03-06T08:14:32.414Z,71.3
2018-03-06T08:15:34.706Z,70.7
2018-03-06T08:16:36.065Z,70.8
2018-03-06T08:17:37.421Z,70.8
2018-03-06T08:18:38.784Z,71.0
2018-03-06T08:19:40.143Z,70.3
2018-03-06T08:20:41.491Z,70.2
2018-03-06T08:21:42.856Z,69.8
2018-03-06T08:22:44.223Z,70.0
2018-03-06T08:23:45.590Z,70.0
2018-03-06T08:24:46.949Z,69.8
2018-03-06T08:25:48.308Z,69.0
2018-03-06T08:26:49.662Z,69.7
2018-03-06T08:27:51.014Z,69.1
2018-03-06T08:28:52.386Z,69.1
2018-03-06T08:29:53.831Z,68.9
2018-03-06T08:30:55.191Z,69.2
2018-03-06T08:31:56.549Z,68.9
2018-03-06T08:32:57.904Z,69.0
2018-03-06T08:33:59.266Z,69.0
2018-03-06T08:35:00.622Z,68.7
2018-03-06T08:36:02.051Z,68.9
2018-03-06T08:37:03.430Z,68.5
2018-03-06T08:38:04.789Z,68.2
2018-03-06T08:39:06.149Z,68.4
2018-03-06T08:40:07.509Z,67.9
2018-03-06T08:41:08.869Z,68.1
2018-03-06T08:42:10.234Z,68.3
2018-03-06T08:43:11.597Z,68.3
2018-03-06T08:44:12.950Z,68.1
2018-03-06T08:45:14.303Z,67.9
2018-03-06T08:46:15.663Z,67.7
2018-03-06T08:47:17.024Z,67.6
2018-03-06T08:48:18.384Z,67.6
2018-03-06T08:49:19.742Z,67.2
2018-03-06T08:50:21.098Z,67.1
2018-03-06T08:51:22.460Z,67.6
2018-03-06T08:52:23.891Z,67.7
2018-03-06T08:53:25.207Z,67.6
2018-03-06T08:54:26.566Z,67.4
2018-03-06T08:55:27.926Z,67.0
2018-03-06T08:56:29.280Z,67.1
2018-03-06T08:57:30.629Z,67.3
2018-03-06T08:58:32.011Z,67.1
2018-03-06T08:59:33.386Z,67.2
2018-03-06T09:00:34.752Z,67.2
2018-03-06T09:01:36.113Z,67.0
2018-03-06T09:02:37.484Z,66.5
2018-03-06T09:03:38.871Z,66.9
2018-03-06T09:04:40.218Z,66.2
2018-03-06T09:05:41.581Z,66.3
2018-03-06T09:06:42.943Z,65.9
2018-03-06T09:07:44.301Z,65.5
2018-03-06T09:08:45.672Z,65.7
2018-03-06T09:09:47.041Z,65.9
2018-03-06T09:10:48.405Z,65.8
2018-03-06T09:11:49.759Z,65.5
2018-03-06T09:12:51.130Z,65.3
2018-03-06T09:13:52.495Z,65.3
2018-03-06T09:14:53.850Z,65.1
2018-03-06T09:15:55.210Z,64.8
2018-03-06T09:16:56.609Z,64.8
2018-03-06T09:17:57.978Z,64.6
2018-03-06T09:18:59.338Z,64.4
2018-03-06T09:20:00.690Z,64.3
2018-03-06T09:21:02.059Z,64.3
2018-03-06T09:22:04.116Z,64.2
2018-03-06T09:23:05.645Z,63.9
2018-03-06T09:24:07.041Z,63.6
2018-03-06T09:25:08.454Z,63.9
2018-03-06T09:26:09.827Z,63.7
2018-03-06T09:27:11.196Z,63.5
2018-03-06T09:28:12.550Z,63.4
2018-03-06T09:29:13.930Z,63.6
2018-03-06T09:30:15.296Z,63.1
2018-03-06T09:31:16.674Z,62.9
2018-03-06T09:32:18.032Z,63.1
2018-03-06T09:33:19.394Z,63.3
2018-03-06T09:34:20.753Z,63.4
2018-03-06T09:35:22.122Z,62.8
2018-03-06T09:36:23.494Z,62.6
2018-03-06T09:37:24.860Z,62.7
2018-03-06T09:38:26.224Z,62.5
2018-03-06T09:39:27.586Z,62.6
2018-03-06T09:40:28.966Z,62.4
2018-03-06T09:41:30.320Z,62.3
2018-03-06T09:42:31.684Z,62.5
2018-03-06T09:43:33.062Z,62.7
2018-03-06T09:44:34.430Z,62.6
2018-03-06T09:45:35.801Z,62.4
2018-03-06T09:46:37.169Z,62.7
2018-03-06T09:47:38.541Z,62.2
2018-03-06T09:48:39.891Z,62.3
2018-03-06T09:49:41.257Z,62.5
2018-03-06T09:50:42.627Z,62.3
2018-03-06T09:51:43.999Z,62.2
2018-03-06T09:52:45.366Z,61.9
2018-03-06T09:53:46.732Z,62.0
2018-03-06T09:54:48.097Z,61.9
2018-03-06T09:55:49.469Z,61.9
2018-03-06T09:56:50.831Z,62.3
2018-03-06T09:57:52.201Z,61.6
2018-03-06T09:58:53.575Z,61.5
2018-03-06T09:59:54.938Z,61.6
2018-03-06T10:00:56.372Z,61.6
2018-03-06T10:01:57.733Z,61.7
2018-03-06T10:02:59.117Z,61.7
2018-03-06T10:04:00.480Z,61.7
2018-03-06T10:05:01.852Z,61.6
2018-03-06T10:06:03.247Z,61.6
2018-03-06T10:07:04.576Z,61.2
2018-03-06T10:08:05.984Z,61.1
2018-03-06T10:09:07.315Z,60.9
2018-03-06T10:10:08.699Z,61.3
2018-03-06T10:11:10.061Z,61.4
2018-03-06T10:12:11.420Z,61.4
2018-03-06T10:13:12.796Z,61.3
2018-03-06T10:14:14.165Z,61.1
2018-03-06T10:15:15.542Z,61.0
2018-03-06T10:16:16.884Z,61.1
2018-03-06T10:17:18.250Z,61.4
2018-03-06T10:18:19.620Z,61.2
2018-03-06T10:19:20.985Z,61.0
2018-03-06T10:20:22.355Z,61.2
2018-03-06T10:21:23.724Z,61.1
2018-03-06T10:22:25.132Z,61.7
2018-03-06T10:23:26.747Z,61.2
2018-03-06T10:24:28.052Z,61.0
2018-03-06T10:25:29.409Z,61.4
2018-03-06T10:26:30.787Z,61.1
2018-03-06T10:27:32.154Z,61.1
2018-03-06T10:28:33.576Z,61.3
2018-03-06T10:29:35.069Z,61.2
2018-03-06T10:30:36.431Z,60.9
2018-03-06T10:31:37.800Z,61.4
2018-03-06T10:32:39.161Z,61.1
2018-03-06T10:33:40.529Z,61.1
2018-03-06T10:34:41.896Z,61.3
2018-03-06T10:35:43.260Z,61.2
2018-03-06T10:36:44.621Z,61.4
2018-03-06T10:37:45.991Z,61.1
2018-03-06T10:38:47.357Z,61.1
2018-03-06T10:39:48.726Z,61.1
2018-03-06T10:40:50.090Z,60.8
2018-03-06T10:41:51.482Z,60.4
2018-03-06T10:42:52.870Z,60.6
2018-03-06T10:43:54.296Z,60.4
2018-03-06T10:44:55.636Z,60.0
2018-03-06T10:45:57.024Z,60.4
2018-03-06T10:46:58.406Z,60.4
2018-03-06T10:47:59.768Z,60.2
2018-03-06T10:49:01.133Z,59.7
2018-03-06T10:50:02.499Z,59.9
2018-03-06T10:51:03.871Z,59.6
2018-03-06T10:52:05.235Z,59.5
2018-03-06T10:53:06.593Z,59.5
2018-03-06T10:54:07.965Z,59.5
2018-03-06T10:55:09.917Z,59.8
2018-03-06T10:56:11.246Z,59.3
2018-03-06T10:57:12.618Z,59.6
2018-03-06T10:58:13.981Z,58.9
2018-03-06T10:59:15.346Z,59.1
2018-03-06T11:00:16.706Z,59.2
2018-03-06T11:01:18.123Z,59.1
2018-03-06T11:02:19.475Z,59.4
2018-03-06T11:03:20.864Z,58.8
2018-03-06T11:04:22.262Z,58.6
2018-03-06T11:05:23.604Z,58.5
2018-03-06T11:06:24.976Z,58.8
2018-03-06T11:07:26.325Z,58.3
2018-03-06T11:08:27.739Z,58.5
2018-03-06T11:09:29.114Z,58.5
2018-03-06T11:10:30.478Z,58.6
2018-03-06T11:11:31.952Z,58.5
2018-03-06T11:12:33.382Z,58.7
2018-03-06T11:13:34.741Z,58.7
2018-03-06T11:14:36.107Z,58.5
2018-03-06T11:15:37.479Z,58.1
2018-03-06T11:16:38.867Z,58.2
2018-03-06T11:17:40.231Z,58.2
2018-03-06T11:18:41.593Z,58.6
2018-03-06T11:19:42.953Z,58.7
2018-03-06T11:20:44.309Z,58.5
2018-03-06T11:21:45.661Z,58.7
2018-03-06T11:22:47.023Z,58.1
2018-03-06T11:23:48.405Z,58.0
2018-03-06T11:24:49.763Z,58.0
2018-03-06T11:25:51.129Z,57.9
2018-03-06T11:26:52.493Z,58.1
2018-03-06T11:27:53.854Z,58.4
2018-03-06T11:28:55.216Z,58.4
2018-03-06T11:29:56.571Z,58.2
2018-03-06T11:30:58.024Z,58.2
2018-03-06T11:31:59.384Z,58.4
2018-03-06T11:33:00.752Z,57.9
2018-03-06T11:34:02.149Z,58.1
2018-03-06T11:35:03.552Z,57.9
2018-03-06T11:36:04.915Z,57.9
2018-03-06T11:37:06.280Z,57.9
2018-03-06T11:38:07.648Z,57.8
2018-03-06T11:39:09.067Z,57.7
2018-03-06T11:40:10.440Z,57.7
2018-03-06T11:41:11.801Z,58.2
2018-03-06T11:42:13.185Z,57.9
2018-03-06T11:43:14.548Z,58.2
2018-03-06T11:44:15.923Z,58.1
2018-03-06T11:45:17.288Z,58.1
2018-03-06T11:46:18.656Z,58.1
2018-03-06T11:47:20.023Z,58.1
2018-03-06T11:48:21.391Z,58.1
2018-03-06T11:49:22.787Z,58.2
2018-03-06T11:50:24.180Z,58.2
2018-03-06T11:51:25.577Z,58.4
2018-03-06T11:52:26.958Z,58.5
2018-03-06T11:53:28.387Z,58.5
2018-03-06T11:54:29.760Z,58.7
2018-03-06T11:55:31.118Z,58.6
2018-03-06T11:56:32.503Z,58.8
2018-03-06T11:57:33.866Z,58.7
2018-03-06T11:58:35.265Z,58.6
2018-03-06T11:59:36.618Z,58.3
2018-03-06T12:00:37.988Z,58.4
2018-03-06T12:01:39.377Z,58.1
2018-03-06T12:02:40.749Z,58.0
2018-03-06T12:03:42.107Z,58.3
2018-03-06T12:04:43.474Z,58.2
2018-03-06T12:05:44.854Z,57.7
2018-03-06T12:06:46.227Z,57.9
2018-03-06T12:07:47.603Z,58.0
2018-03-06T12:08:48.966Z,58.2
2018-03-06T12:09:50.330Z,57.8
2018-03-06T12:10:51.705Z,57.6
2018-03-06T12:11:53.065Z,57.6
2018-03-06T12:12:54.433Z,57.7
2018-03-06T12:13:55.795Z,57.6
2018-03-06T12:14:57.166Z,57.7
2018-03-06T12:15:58.536Z,57.5
2018-03-06T12:16:59.906Z,57.5
2018-03-06T12:18:01.270Z,57.7
2018-03-06T12:19:02.630Z,57.5
2018-03-06T12:20:04.871Z,57.2
2018-03-06T12:21:06.239Z,57.3
2018-03-06T12:22:07.602Z,57.3
2018-03-06T12:23:08.968Z,57.1
2018-03-06T12:24:10.364Z,57.1
2018-03-06T12:25:11.728Z,56.9
2018-03-06T12:26:13.093Z,56.8
2018-03-06T12:27:14.470Z,56.8
2018-03-06T12:28:15.838Z,56.3
2018-03-06T12:29:17.202Z,56.3
2018-03-06T12:30:18.566Z,56.4
2018-03-06T12:31:19.946Z,56.2
2018-03-06T12:32:21.318Z,56.4
2018-03-06T12:33:22.679Z,56.2
2018-03-06T12:34:24.048Z,56.2
2018-03-06T12:35:25.434Z,55.8
2018-03-06T12:36:26.787Z,56.4
2018-03-06T12:37:28.168Z,56.0
2018-03-06T12:38:29.520Z,55.4
2018-03-06T12:39:30.884Z,55.6
2018-03-06T12:40:32.255Z,55.4
2018-03-06T12:41:33.632Z,55.7
2018-03-06T12:42:35.621Z,55.8
2018-03-06T12:43:36.989Z,55.8
2018-03-06T12:44:38.358Z,55.9
2018-03-06T12:45:39.724Z,55.3
2018-03-06T12:46:41.092Z,55.0
2018-03-06T12:47:42.464Z,55.1
2018-03-06T12:48:43.840Z,55.3
2018-03-06T12:49:45.211Z,55.3
2018-03-06T12:50:46.582Z,55.0
2018-03-06T12:51:47.955Z,55.4
2018-03-06T12:52:49.321Z,54.7
2018-03-06T12:53:50.696Z,54.9
2018-03-06T12:54:52.138Z,55.1
2018-03-06T12:55:53.442Z,55.1
2018-03-06T12:56:54.816Z,54.9
2018-03-06T12:57:56.189Z,55.1
2018-03-06T12:58:57.558Z,54.7
2018-03-06T12:59:58.928Z,54.5
2018-03-06T13:01:00.300Z,54.7
2018-03-06T13:02:01.974Z,54.7
2018-03-06T13:03:03.391Z,54.7
2018-03-06T13:04:04.767Z,54.2
2018-03-06T13:05:06.173Z,54.2
2018-03-06T13:06:07.503Z,54.2
2018-03-06T13:07:08.889Z,54.3
2018-03-06T13:08:10.253Z,54.2
2018-03-06T13:09:11.620Z,54.1
2018-03-06T13:10:13.014Z,54.2
2018-03-06T13:11:15.358Z,54.5
2018-03-06T13:12:16.734Z,54.0
2018-03-06T13:13:18.105Z,54.0
2018-03-06T13:14:19.472Z,54.0
2018-03-06T13:15:20.846Z,54.0
2018-03-06T13:16:22.214Z,54.0
2018-03-06T13:17:23.899Z,53.9
2018-03-06T13:18:25.245Z,53.6
2018-03-06T13:19:26.859Z,53.4
2018-03-06T13:20:28.625Z,53.6
2018-03-06T13:21:30.319Z,53.5
2018-03-06T13:22:31.694Z,53.9
2018-03-06T13:23:33.659Z,53.9
2018-03-06T13:24:35.049Z,53.9
2018-03-06T13:25:36.589Z,53.6
2018-03-06T13:26:37.957Z,53.6
2018-03-06T13:27:40.925Z,53.4
2018-03-06T13:28:43.006Z,53.5
2018-03-06T13:29:44.403Z,53.3
2018-03-06T13:30:45.960Z,53.3
2018-03-06T13:31:47.347Z,53.2
2018-03-06T13:32:49.000Z,53.3
2018-03-06T13:33:50.677Z,53.4
2018-03-06T13:34:52.381Z,53.3
2018-03-06T13:35:53.750Z,53.4
2018-03-06T13:36:55.196Z,53.4